createdAt,value
2023-03-26T03:58:38.440Z,449.00
2023-03-26T03:59:39.176Z,438.00
2023-03-26T04:00:40.531Z,437.00
2023-03-26T04:01:38.477Z,433.00
2023-03-26T04:02:40.379Z,432.00
2023-03-26T04:03:39.709Z,430.00
2023-03-26T04:04:38.800Z,430.00
2023-03-26T04:05:39.828Z,431.00
2023-03-26T04:06:39.491Z,431.00
2023-03-26T04:07:40.468Z,430.00
2023-03-26T04:08:40.210Z,431.00
2023-03-26T04:09:39.577Z,434.00
2023-03-26T04:10:39.891Z,434.00
2023-03-26T04:11:39.939Z,433.00
2023-03-26T04:12:41.410Z,434.00
2023-03-26T04:13:41.692Z,434.00
2023-03-26T04:14:40.034Z,433.00
2023-03-26T04:15:41.814Z,432.00
2023-03-26T04:16:41.642Z,434.00
2023-03-26T04:17:40.563Z,436.00
2023-03-26T04:18:41.431Z,434.00
2023-03-26T04:19:40.968Z,433.00
2023-03-26T04:20:40.824Z,434.00
2023-03-26T04:21:41.938Z,435.00
2023-03-26T04:22:41.288Z,435.00
2023-03-26T04:23:42.999Z,433.00
2023-03-26T04:24:41.283Z,432.00
2023-03-26T04:25:41.416Z,432.00
2023-03-26T04:26:41.481Z,433.00
2023-03-26T04:27:43.130Z,433.00
2023-03-26T04:28:43.152Z,431.00
2023-03-26T04:30:03.430Z,432.00
2023-03-26T04:30:42.535Z,431.00
2023-03-26T04:31:43.342Z,430.00
2023-03-26T04:32:43.329Z,429.00
2023-03-26T04:33:42.442Z,429.00
2023-03-26T04:34:42.771Z,430.00
2023-03-26T04:35:43.702Z,429.00
2023-03-26T04:36:43.102Z,431.00
2023-03-26T04:37:43.927Z,431.00
2023-03-26T04:38:43.203Z,432.00
2023-03-26T04:39:44.135Z,432.00
2023-03-26T04:40:44.588Z,430.00
2023-03-26T04:41:43.506Z,432.00
2023-03-26T04:42:44.700Z,432.00
2023-03-26T04:43:45.013Z,432.00
2023-03-26T04:44:45.756Z,433.00
2023-03-26T04:45:44.378Z,437.00
2023-03-26T04:46:44.209Z,434.00
2023-03-26T04:47:45.261Z,436.00
2023-03-26T04:48:45.317Z,435.00
2023-03-26T04:49:44.524Z,434.00
2023-03-26T04:50:50.122Z,434.00
2023-03-26T04:51:45.031Z,433.00
2023-03-26T04:52:45.600Z,433.00
2023-03-26T04:53:46.079Z,433.00
2023-03-26T04:54:45.592Z,434.00
2023-03-26T04:55:46.533Z,435.00
2023-03-26T04:56:46.439Z,435.00
2023-03-26T04:57:45.635Z,434.00
2023-03-26T04:58:46.598Z,433.00
2023-03-26T04:59:46.682Z,433.00
2023-03-26T05:00:46.865Z,434.00
2023-03-26T05:01:46.342Z,433.00
2023-03-26T05:02:46.465Z,431.00
2023-03-26T05:03:46.473Z,431.00
2023-03-26T05:04:46.753Z,431.00
2023-03-26T05:05:46.689Z,436.00
2023-03-26T05:06:47.853Z,437.00
2023-03-26T05:07:47.332Z,436.00
2023-03-26T05:08:47.886Z,435.00
2023-03-26T05:09:48.025Z,435.00
2023-03-26T05:10:47.420Z,434.00
2023-03-26T05:11:47.852Z,435.00
2023-03-26T05:12:47.878Z,434.00
2023-03-26T05:13:48.623Z,436.00
2023-03-26T05:14:49.767Z,435.00
2023-03-26T05:15:48.985Z,435.00
2023-03-26T05:16:49.504Z,436.00
2023-03-26T05:17:48.371Z,438.00
2023-03-26T05:18:48.685Z,439.00
2023-03-26T05:22:08.659Z,448.00
2023-03-26T05:23:05.945Z,449.00
2023-03-26T05:24:05.247Z,449.00
2023-03-26T05:25:05.415Z,444.00
2023-03-26T05:26:06.798Z,447.00
2023-03-26T05:27:05.542Z,444.00
2023-03-26T05:28:05.648Z,443.00
2023-03-26T05:29:07.163Z,440.00
2023-03-26T05:30:07.224Z,441.00
2023-03-26T05:31:07.249Z,440.00
2023-03-26T05:32:06.284Z,440.00
2023-03-26T05:33:06.218Z,438.00
2023-03-26T05:34:07.426Z,438.00
2023-03-26T05:35:06.561Z,435.00
2023-03-26T05:36:06.676Z,432.00
2023-03-26T05:37:07.816Z,433.00
2023-03-26T05:38:07.862Z,434.00
2023-03-26T05:39:08.034Z,434.00
2023-03-26T05:40:07.646Z,434.00
2023-03-26T05:41:07.505Z,433.00
2023-03-26T05:42:07.606Z,432.00
2023-03-26T05:43:11.727Z,434.00
2023-03-26T05:44:07.718Z,432.00
2023-03-26T05:45:07.908Z,431.00
2023-03-26T05:46:09.163Z,432.00
2023-03-26T05:47:09.081Z,433.00
2023-03-26T05:48:09.830Z,433.00
2023-03-26T05:49:08.476Z,435.00
2023-03-26T05:50:08.967Z,431.00
2023-03-26T05:51:09.149Z,431.00
2023-03-26T05:52:13.154Z,431.00
2023-03-26T05:53:09.132Z,430.00
2023-03-26T05:54:11.006Z,431.00
2023-03-26T05:55:09.266Z,433.00
2023-03-26T05:56:09.511Z,434.00
2023-03-26T05:57:09.684Z,432.00
2023-03-26T05:58:11.125Z,432.00
2023-03-26T05:59:11.176Z,432.00
2023-03-26T06:00:10.387Z,434.00
2023-03-26T06:01:11.786Z,433.00
2023-03-26T06:02:14.265Z,432.00
2023-03-26T06:03:11.484Z,431.00
2023-03-26T06:04:10.776Z,432.00
2023-03-26T06:05:11.649Z,430.00
2023-03-26T06:06:11.732Z,428.00
2023-03-26T06:07:12.515Z,426.00
2023-03-26T06:08:11.625Z,426.00
2023-03-26T06:09:11.388Z,425.00
2023-03-26T06:10:11.713Z,429.00
2023-03-26T06:11:16.720Z,430.00
2023-03-26T06:12:11.809Z,431.00
2023-03-26T06:13:11.856Z,431.00
2023-03-26T06:14:12.907Z,432.00
2023-03-26T06:15:13.000Z,432.00
2023-03-26T06:16:27.733Z,431.00
2023-03-26T06:17:14.285Z,433.00
2023-03-26T06:18:13.506Z,431.00
2023-03-26T06:19:13.111Z,429.00
2023-03-26T06:20:13.119Z,430.00
2023-03-26T06:21:14.132Z,433.00
2023-03-26T06:22:13.365Z,431.00
2023-03-26T06:23:15.002Z,429.00
2023-03-26T06:24:13.530Z,430.00
2023-03-26T06:25:15.056Z,432.00
2023-03-26T06:26:14.670Z,429.00
2023-03-26T06:27:13.814Z,428.00
2023-03-26T06:28:13.949Z,430.00
2023-03-26T06:29:14.071Z,430.00
2023-03-26T06:30:14.235Z,426.00
2023-03-26T06:31:14.662Z,422.00
2023-03-26T06:32:20.171Z,422.00
2023-03-26T06:33:15.677Z,420.00
2023-03-26T06:34:14.749Z,419.00
2023-03-26T06:35:15.019Z,421.00
2023-03-26T06:36:15.105Z,424.00
2023-03-26T06:37:15.148Z,427.00
2023-03-26T06:38:15.388Z,429.00
2023-03-26T06:39:15.399Z,428.00
2023-03-26T06:40:16.005Z,427.00
2023-03-26T06:41:15.682Z,428.00
2023-03-26T06:42:15.829Z,430.00
2023-03-26T06:43:15.962Z,428.00
2023-03-26T06:44:16.119Z,429.00
2023-03-26T06:45:16.249Z,429.00
2023-03-26T06:46:16.410Z,430.00
2023-03-26T06:47:16.462Z,430.00
2023-03-26T06:48:16.569Z,430.00
2023-03-26T06:49:16.749Z,430.00
2023-03-26T06:50:16.859Z,430.00
2023-03-26T06:51:17.000Z,429.00
2023-03-26T06:52:18.069Z,431.00
2023-03-26T06:53:17.223Z,430.00
2023-03-26T06:54:17.324Z,431.00
2023-03-26T06:55:17.455Z,433.00
2023-03-26T06:56:17.574Z,432.00
2023-03-26T06:57:17.687Z,435.00
2023-03-26T06:58:17.796Z,435.00
2023-03-26T06:59:17.956Z,436.00
2023-03-26T07:00:18.068Z,437.00
2023-03-26T07:01:18.251Z,435.00
2023-03-26T07:02:18.373Z,435.00
2023-03-26T07:03:18.518Z,436.00
2023-03-26T07:04:18.666Z,435.00
2023-03-26T07:05:18.750Z,435.00
2023-03-26T07:06:18.909Z,434.00
2023-03-26T07:07:19.051Z,432.00
2023-03-26T07:08:19.198Z,430.00
2023-03-26T07:09:19.350Z,430.00
2023-03-26T07:10:20.453Z,430.00
2023-03-26T07:11:19.664Z,429.00
2023-03-26T07:12:19.775Z,431.00
2023-03-26T07:13:20.963Z,434.00
2023-03-26T07:14:20.039Z,434.00
2023-03-26T07:15:20.165Z,436.00
2023-03-26T07:16:20.476Z,434.00
2023-03-26T07:17:20.477Z,434.00
2023-03-26T07:18:20.584Z,437.00
2023-03-26T07:19:20.699Z,435.00
2023-03-26T07:20:20.885Z,436.00
2023-03-26T07:21:20.953Z,437.00
2023-03-26T07:22:21.099Z,438.00
2023-03-26T07:23:21.243Z,437.00
2023-03-26T07:24:21.356Z,436.00
2023-03-26T07:25:21.506Z,435.00
2023-03-26T07:27:38.923Z,471.00
2023-03-26T07:28:38.765Z,451.00
2023-03-26T07:29:38.888Z,446.00
2023-03-26T07:30:39.244Z,446.00
2023-03-26T07:31:38.359Z,447.00
2023-03-26T07:32:38.472Z,449.00
2023-03-26T07:33:39.516Z,448.00
2023-03-26T07:34:38.731Z,446.00
2023-03-26T07:35:38.819Z,446.00
2023-03-26T07:36:40.223Z,447.00
2023-03-26T07:37:39.464Z,446.00
2023-03-26T07:38:39.643Z,447.00
2023-03-26T07:39:40.336Z,446.00
2023-03-26T07:40:39.418Z,446.00
2023-03-26T07:41:40.822Z,448.00
2023-03-26T07:42:39.843Z,445.00
2023-03-26T07:43:40.711Z,446.00
2023-03-26T07:44:41.503Z,446.00
2023-03-26T07:45:40.565Z,445.00
2023-03-26T07:46:41.600Z,446.00
2023-03-26T07:47:41.278Z,445.00
2023-03-26T07:48:40.908Z,446.00
2023-03-26T07:49:41.042Z,445.00
2023-03-26T07:50:40.802Z,443.00
2023-03-26T07:51:42.349Z,441.00
2023-03-26T07:52:42.706Z,439.00
2023-03-26T07:53:41.143Z,439.00
2023-03-26T07:54:42.839Z,439.00
2023-03-26T07:55:41.711Z,439.00
2023-03-26T07:56:42.795Z,438.00
2023-03-26T07:57:43.138Z,439.00
2023-03-26T07:58:42.302Z,438.00
2023-03-26T07:59:42.398Z,438.00
2023-03-26T08:00:42.128Z,438.00
2023-03-26T08:01:42.512Z,435.00
2023-03-26T08:02:42.551Z,431.00
2023-03-26T08:03:43.513Z,433.00
2023-03-26T08:04:43.680Z,437.00
2023-03-26T08:05:44.126Z,436.00
2023-03-26T08:06:43.844Z,439.00
2023-03-26T08:07:44.015Z,437.00
2023-03-26T08:08:43.754Z,435.00
2023-03-26T08:09:43.520Z,434.00
2023-03-26T08:10:45.284Z,432.00
2023-03-26T08:11:44.604Z,430.00
2023-03-26T08:12:44.873Z,429.00
2023-03-26T08:13:43.933Z,431.00
2023-03-26T08:14:44.913Z,429.00
2023-03-26T08:16:05.541Z,426.00
2023-03-26T08:16:45.497Z,426.00
2023-03-26T08:17:44.596Z,426.00
2023-03-26T08:18:45.457Z,427.00
2023-03-26T08:19:44.686Z,428.00
2023-03-26T08:20:46.231Z,431.00
2023-03-26T08:21:44.956Z,431.00
2023-03-26T08:22:45.320Z,431.00
2023-03-26T08:23:50.223Z,430.00
2023-03-26T08:24:46.426Z,429.00
2023-03-26T08:25:45.542Z,428.00
2023-03-26T08:26:45.656Z,430.00
2023-03-26T08:27:46.631Z,429.00
2023-03-26T08:28:46.782Z,429.00
2023-03-26T08:29:46.092Z,431.00
2023-03-26T08:30:46.091Z,433.00
2023-03-26T08:31:46.162Z,433.00
2023-03-26T08:32:46.371Z,430.00
2023-03-26T08:33:46.516Z,427.00
2023-03-26T08:34:46.630Z,427.00
2023-03-26T08:35:47.604Z,427.00
2023-03-26T08:36:47.712Z,426.00
2023-03-26T08:37:48.195Z,425.00
2023-03-26T08:38:47.474Z,426.00
2023-03-26T08:39:47.526Z,424.00
2023-03-26T08:40:48.194Z,424.00
2023-03-26T08:41:47.598Z,426.00
2023-03-26T08:42:49.130Z,426.00
2023-03-26T08:43:47.914Z,427.00
2023-03-26T08:44:49.445Z,429.00
2023-03-26T08:45:48.137Z,428.00
2023-03-26T08:46:48.582Z,429.00
2023-03-26T08:47:49.336Z,433.00
2023-03-26T08:48:49.246Z,432.00
2023-03-26T08:49:48.477Z,432.00
2023-03-26T08:50:48.656Z,432.00
2023-03-26T08:54:06.044Z,433.00
2023-03-26T08:55:05.159Z,433.00
2023-03-26T08:56:05.612Z,436.00
2023-03-26T08:57:05.668Z,435.00
2023-03-26T08:58:05.512Z,436.00
2023-03-26T08:59:06.588Z,437.00
2023-03-26T09:00:06.665Z,435.00
2023-03-26T09:01:06.824Z,433.00
2023-03-26T09:02:07.082Z,434.00
2023-03-26T09:03:07.124Z,433.00
2023-03-26T09:04:06.578Z,432.00
2023-03-26T09:05:06.806Z,433.00
2023-03-26T09:06:07.574Z,435.00
2023-03-26T09:07:06.855Z,435.00
2023-03-26T09:08:06.908Z,436.00
2023-03-26T09:09:07.227Z,438.00
2023-03-26T09:10:07.197Z,438.00
2023-03-26T09:11:08.699Z,436.00
2023-03-26T09:12:07.657Z,434.00
2023-03-26T09:13:07.663Z,432.00
2023-03-26T09:14:08.705Z,431.00
2023-03-26T09:15:09.118Z,429.00
2023-03-26T09:16:09.037Z,430.00
2023-03-26T09:17:08.306Z,429.00
2023-03-26T09:18:08.371Z,428.00
2023-03-26T09:19:09.328Z,429.00
2023-03-26T09:20:08.630Z,429.00
2023-03-26T09:21:09.995Z,429.00
2023-03-26T09:22:09.354Z,429.00
2023-03-26T09:23:10.028Z,432.00
2023-03-26T09:24:09.581Z,432.00
2023-03-26T09:25:09.493Z,431.00
2023-03-26T09:26:09.504Z,432.00
2023-03-26T09:27:11.165Z,432.00
2023-03-26T09:28:10.605Z,433.00
2023-03-26T09:29:10.741Z,431.00
2023-03-26T09:30:09.996Z,433.00
2023-03-26T09:31:10.981Z,436.00
2023-03-26T09:32:10.413Z,436.00
2023-03-26T09:33:10.532Z,436.00
2023-03-26T09:34:12.456Z,438.00
2023-03-26T09:35:13.307Z,435.00
2023-03-26T09:36:11.829Z,436.00
2023-03-26T09:37:12.502Z,435.00
2023-03-26T09:38:11.381Z,433.00
2023-03-26T09:39:11.306Z,431.00
2023-03-26T09:40:11.428Z,432.00
2023-03-26T09:41:12.864Z,432.00
2023-03-26T09:42:12.070Z,430.00
2023-03-26T09:43:11.762Z,432.00
2023-03-26T09:44:11.880Z,433.00
2023-03-26T09:45:13.115Z,432.00
2023-03-26T09:46:12.391Z,430.00
2023-03-26T09:47:13.234Z,429.00
2023-03-26T09:48:13.248Z,427.00
2023-03-26T09:49:12.519Z,428.00
2023-03-26T09:50:13.566Z,427.00
2023-03-26T09:51:13.964Z,425.00
2023-03-26T09:52:13.343Z,424.00
2023-03-26T09:53:13.215Z,424.00
2023-03-26T09:54:14.392Z,426.00
2023-03-26T09:55:13.477Z,429.00
2023-03-26T09:56:13.464Z,427.00
2023-03-26T09:57:13.701Z,428.00
2023-03-26T09:58:16.248Z,429.00
2023-03-26T09:59:14.799Z,428.00
2023-03-26T10:00:14.482Z,427.00
2023-03-26T10:01:15.361Z,429.00
2023-03-26T10:13:04.867Z,443.00
2023-03-26T10:13:56.800Z,428.00
2023-03-26T10:14:54.758Z,431.00
2023-03-26T10:15:54.907Z,433.00
2023-03-26T10:16:55.088Z,432.00
2023-03-26T10:17:55.170Z,432.00
2023-03-26T10:18:55.321Z,431.00
2023-03-26T10:19:55.468Z,430.00
2023-03-26T10:20:55.785Z,429.00
2023-03-26T10:21:55.684Z,429.00
2023-03-26T10:22:55.834Z,431.00
2023-03-26T10:23:55.981Z,432.00
2023-03-26T10:24:56.071Z,432.00
2023-03-26T10:25:56.227Z,433.00
2023-03-26T10:27:08.991Z,433.00
2023-03-26T10:27:57.463Z,433.00
2023-03-26T10:28:56.579Z,431.00
2023-03-26T10:29:56.722Z,430.00
2023-03-26T10:30:57.172Z,431.00
2023-03-26T10:31:57.065Z,432.00
2023-03-26T10:32:57.143Z,430.00
2023-03-26T10:33:57.303Z,429.00
2023-03-26T10:34:57.409Z,426.00
2023-03-26T10:35:57.638Z,429.00
2023-03-26T10:36:57.707Z,429.00
2023-03-26T10:37:57.846Z,429.00
2023-03-26T10:38:57.977Z,431.00
2023-03-26T10:39:58.110Z,430.00
2023-03-26T10:40:58.288Z,429.00
2023-03-26T10:41:58.328Z,430.00
2023-03-26T10:42:58.443Z,427.00
2023-03-26T10:44:08.095Z,427.00
2023-03-26T10:44:59.645Z,429.00
2023-03-26T10:45:58.901Z,430.00
2023-03-26T10:46:58.980Z,429.00
2023-03-26T10:47:59.147Z,426.00
2023-03-26T10:48:59.296Z,428.00
2023-03-26T10:49:59.414Z,430.00
2023-03-26T10:50:59.537Z,430.00
2023-03-26T10:51:59.672Z,431.00
2023-03-26T10:52:59.830Z,429.00
2023-03-26T10:53:59.991Z,427.00
2023-03-26T10:55:00.155Z,427.00
2023-03-26T10:56:00.276Z,425.00
2023-03-26T10:57:00.380Z,424.00
2023-03-26T10:58:00.493Z,425.00
2023-03-26T10:59:00.638Z,425.00
2023-03-26T11:00:00.720Z,428.00
2023-03-26T11:01:00.818Z,429.00
2023-03-26T11:02:00.969Z,430.00
2023-03-26T11:03:01.107Z,432.00
2023-03-26T11:04:01.213Z,430.00
2023-03-26T11:05:01.380Z,432.00
2023-03-26T11:06:01.503Z,432.00
2023-03-26T11:07:03.774Z,433.00
2023-03-26T11:08:01.758Z,430.00
2023-03-26T11:09:01.857Z,431.00
2023-03-26T11:10:01.985Z,433.00
2023-03-26T11:11:02.117Z,434.00
2023-03-26T11:12:02.223Z,433.00
2023-03-26T11:13:04.990Z,432.00
2023-03-26T11:14:02.539Z,434.00
2023-03-26T11:15:02.724Z,432.00
2023-03-26T11:16:02.887Z,433.00
2023-03-26T11:17:03.041Z,433.00
2023-03-26T11:18:03.188Z,434.00
2023-03-26T11:19:05.534Z,435.00
2023-03-26T11:20:03.472Z,434.00
2023-03-26T11:21:19.880Z,435.00
2023-03-26T11:22:04.814Z,436.00
2023-03-26T11:23:03.910Z,436.00
2023-03-26T11:24:05.069Z,438.00
2023-03-26T11:25:05.557Z,440.00
2023-03-26T11:26:04.329Z,439.00
2023-03-26T11:27:15.017Z,437.00
2023-03-26T11:28:05.598Z,437.00
2023-03-26T11:29:31.322Z,434.00
2023-03-26T11:30:05.936Z,434.00
2023-03-26T11:31:06.070Z,432.00
2023-03-26T11:32:05.187Z,431.00
2023-03-26T11:33:05.290Z,431.00
2023-03-26T11:34:05.341Z,430.00
2023-03-26T11:35:05.519Z,432.00
2023-03-26T11:36:05.720Z,432.00
2023-03-26T11:37:05.876Z,432.00
2023-03-26T11:38:06.038Z,429.00
2023-03-26T11:39:07.084Z,427.00
2023-03-26T11:40:06.336Z,426.00
2023-03-26T11:41:06.436Z,427.00
2023-03-26T11:42:06.608Z,426.00
2023-03-26T11:43:06.737Z,425.00
2023-03-26T11:44:06.841Z,423.00
2023-03-26T11:45:06.955Z,423.00
2023-03-26T11:46:07.124Z,423.00
2023-03-26T11:47:07.266Z,425.00
2023-03-26T11:48:07.466Z,425.00
2023-03-26T11:49:07.561Z,427.00
2023-03-26T11:50:07.633Z,427.00
2023-03-26T11:51:07.768Z,428.00
2023-03-26T11:52:07.883Z,425.00
2023-03-26T11:53:08.060Z,426.00
2023-03-26T11:54:08.130Z,427.00
2023-03-26T11:55:08.285Z,426.00
2023-03-26T11:56:08.415Z,425.00
2023-03-26T11:57:08.770Z,425.00
2023-03-26T11:58:09.773Z,424.00
2023-03-26T11:59:08.889Z,424.00
2023-03-26T12:00:08.948Z,427.00
2023-03-26T12:01:09.055Z,428.00
2023-03-26T12:02:09.230Z,427.00
2023-03-26T12:03:09.334Z,429.00
2023-03-26T12:04:09.527Z,430.00
2023-03-26T12:05:09.521Z,432.00
2023-03-26T12:06:09.776Z,434.00
2023-03-26T12:07:09.937Z,432.00
2023-03-26T12:08:10.097Z,431.00
2023-03-26T12:09:10.107Z,429.00
2023-03-26T12:10:18.236Z,428.00
2023-03-26T12:11:11.338Z,425.00
2023-03-26T12:12:10.502Z,425.00
2023-03-26T12:13:10.616Z,425.00
2023-03-26T12:14:10.745Z,424.00
2023-03-26T12:15:10.894Z,424.00
2023-03-26T12:16:11.112Z,423.00
2023-03-26T12:17:11.158Z,426.00
2023-03-26T12:18:11.320Z,426.00
2023-03-26T12:19:11.421Z,426.00
2023-03-26T12:20:11.561Z,426.00
2023-03-26T12:21:11.678Z,425.00
2023-03-26T12:22:11.806Z,428.00
2023-03-26T12:23:11.916Z,428.00
2023-03-26T12:24:12.114Z,427.00
2023-03-26T12:25:12.206Z,428.00
2023-03-26T12:26:12.316Z,426.00
2023-03-26T12:27:12.422Z,425.00
2023-03-26T12:28:12.606Z,423.00
2023-03-26T12:29:12.694Z,424.00
2023-03-26T12:30:12.791Z,423.00
2023-03-26T12:31:12.948Z,422.00
2023-03-26T12:32:13.041Z,420.00
2023-03-26T12:33:13.241Z,421.00
2023-03-26T12:34:13.324Z,422.00
2023-03-26T12:35:13.434Z,423.00
2023-03-26T12:36:13.606Z,422.00
2023-03-26T12:37:13.698Z,422.00
2023-03-26T12:38:13.855Z,421.00
2023-03-26T12:39:15.958Z,422.00
2023-03-26T12:40:16.146Z,422.00
2023-03-26T12:43:51.439Z,423.00
2023-03-26T12:44:43.455Z,422.00
2023-03-26T12:44:49.933Z,422.00
2023-03-26T12:44:55.725Z,421.00
2023-03-26T12:45:15.802Z,421.00
2023-03-26T12:47:56.147Z,423.00
2023-03-26T12:47:57.347Z,422.00
2023-03-26T12:48:16.506Z,420.00
2023-03-26T12:49:15.409Z,422.00
2023-03-26T12:50:15.472Z,423.00
2023-03-26T12:51:15.593Z,426.00
2023-03-26T12:52:15.731Z,428.00
2023-03-26T12:53:15.881Z,426.00
2023-03-26T12:54:16.030Z,428.00
2023-03-26T12:55:16.168Z,426.00
2023-03-26T12:56:16.294Z,428.00
2023-03-26T12:57:16.443Z,430.00
2023-03-26T12:58:16.536Z,430.00
2023-03-26T12:59:16.665Z,431.00
2023-03-26T13:00:16.812Z,434.00
2023-03-26T13:01:16.980Z,436.00
2023-03-26T13:02:17.150Z,435.00
2023-03-26T13:03:17.270Z,435.00
2023-03-26T13:04:17.347Z,435.00
2023-03-26T13:05:17.460Z,432.00
2023-03-26T13:06:17.572Z,431.00
2023-03-26T13:07:17.743Z,430.00
2023-03-26T13:08:17.820Z,430.00
2023-03-26T13:09:17.968Z,428.00
2023-03-26T13:10:18.105Z,429.00
2023-03-26T13:11:18.258Z,431.00
2023-03-26T13:12:18.436Z,430.00
2023-03-26T13:13:18.571Z,430.00
2023-03-26T13:14:18.645Z,428.00
2023-03-26T13:15:18.855Z,426.00
2023-03-26T13:16:19.017Z,428.00
2023-03-26T13:17:19.109Z,429.00
2023-03-26T13:18:19.217Z,429.00
2023-03-26T13:19:19.330Z,429.00
2023-03-26T13:20:19.471Z,431.00
2023-03-26T13:21:19.614Z,430.00
2023-03-26T13:22:19.721Z,431.00
2023-03-26T13:23:19.894Z,431.00
2023-03-26T13:24:20.019Z,431.00
2023-03-26T13:25:20.127Z,431.00
2023-03-26T13:26:20.264Z,429.00
2023-03-26T13:27:20.332Z,428.00
2023-03-26T13:28:20.483Z,425.00
2023-03-26T13:29:20.630Z,427.00
2023-03-26T13:30:20.795Z,431.00
2023-03-26T13:31:21.009Z,431.00
2023-03-26T13:32:22.053Z,431.00
2023-03-26T13:33:21.198Z,428.00
2023-03-26T13:34:21.346Z,425.00
2023-03-26T13:35:21.521Z,427.00
2023-03-26T13:36:24.235Z,426.00
2023-03-26T13:37:21.771Z,427.00
2023-03-26T13:38:21.915Z,427.00
2023-03-26T13:39:22.044Z,426.00
2023-03-26T13:40:22.230Z,427.00
2023-03-26T13:41:22.342Z,427.00
2023-03-26T13:42:22.529Z,429.00
2023-03-26T13:43:22.689Z,428.00
2023-03-26T13:44:23.478Z,428.00
2023-03-26T13:45:23.031Z,427.00
2023-03-26T13:46:23.125Z,427.00
2023-03-26T13:47:23.302Z,425.00
2023-03-26T13:48:23.302Z,426.00
2023-03-26T13:49:23.518Z,422.00
2023-03-26T13:50:23.554Z,418.00
2023-03-26T13:51:23.677Z,419.00
2023-03-26T13:52:23.824Z,422.00
2023-03-26T13:53:23.962Z,423.00
2023-03-26T13:54:24.060Z,423.00
2023-03-26T13:55:24.167Z,423.00
2023-03-26T13:56:24.328Z,421.00
2023-03-26T13:57:24.464Z,419.00
2023-03-26T13:58:25.614Z,419.00
2023-03-26T13:59:25.755Z,420.00
2023-03-26T14:00:24.854Z,419.00
2023-03-26T14:01:25.011Z,419.00
2023-03-26T14:02:25.183Z,417.00
2023-03-26T14:03:26.264Z,419.00
2023-03-26T14:04:25.439Z,420.00
2023-03-26T14:05:25.536Z,419.00
2023-03-26T14:06:25.749Z,418.00
2023-03-26T14:07:25.781Z,416.00
2023-03-26T14:08:26.859Z,415.00
2023-03-26T14:09:26.036Z,415.00
2023-03-26T14:10:26.143Z,418.00
2023-03-26T14:11:26.298Z,422.00
2023-03-26T14:12:26.435Z,423.00
2023-03-26T14:13:27.529Z,425.00
2023-03-26T14:14:26.724Z,423.00
2023-03-26T14:15:26.900Z,421.00
2023-03-26T14:16:27.000Z,420.00
2023-03-26T14:17:27.147Z,419.00
2023-03-26T14:18:27.265Z,418.00
2023-03-26T14:19:28.042Z,418.00
2023-03-26T14:20:27.656Z,416.00
2023-03-26T14:21:27.649Z,416.00
2023-03-26T14:22:28.772Z,415.00
2023-03-26T14:23:27.938Z,411.00
2023-03-26T14:24:28.060Z,412.00
2023-03-26T14:25:28.233Z,412.00
2023-03-26T14:26:28.363Z,412.00
2023-03-26T14:27:28.512Z,414.00
2023-03-26T14:28:28.697Z,416.00
2023-03-26T14:29:28.786Z,419.00
2023-03-26T14:30:28.907Z,422.00
2023-03-26T14:31:29.210Z,424.00
2023-03-26T14:32:30.173Z,423.00
2023-03-26T14:33:29.340Z,425.00
2023-03-26T14:34:29.442Z,424.00
2023-03-26T14:35:29.594Z,423.00
2023-03-26T14:36:29.677Z,422.00
2023-03-26T14:37:29.801Z,421.00
2023-03-26T14:38:29.946Z,422.00
2023-03-26T14:39:30.082Z,420.00
2023-03-26T14:40:30.220Z,417.00
2023-03-26T14:41:30.332Z,417.00
2023-03-26T14:42:31.429Z,417.00
2023-03-26T14:43:30.662Z,418.00
2023-03-26T14:44:30.824Z,418.00
2023-03-26T14:45:31.894Z,418.00
2023-03-26T14:46:31.082Z,420.00
2023-03-26T14:47:32.261Z,419.00
2023-03-26T14:48:31.284Z,418.00
2023-03-26T14:49:31.381Z,418.00
2023-03-26T14:50:31.561Z,418.00
2023-03-26T14:51:31.687Z,422.00
2023-03-26T14:52:31.746Z,422.00
2023-03-26T14:53:31.856Z,421.00
2023-03-26T14:54:32.034Z,423.00
2023-03-26T14:55:32.161Z,423.00
2023-03-26T14:56:32.392Z,422.00
2023-03-26T14:57:32.463Z,420.00
2023-03-26T14:58:32.566Z,419.00
2023-03-26T14:59:32.724Z,419.00
2023-03-26T15:00:32.825Z,420.00
2023-03-26T15:01:32.931Z,420.00
2023-03-26T15:02:33.078Z,421.00
2023-03-26T15:03:33.121Z,422.00
2023-03-26T15:04:33.258Z,418.00
2023-03-26T15:05:33.402Z,417.00
2023-03-26T15:06:33.535Z,418.00
2023-03-26T15:07:33.651Z,417.00
2023-03-26T15:08:34.706Z,417.00
2023-03-26T15:09:33.903Z,420.00
2023-03-26T15:10:34.080Z,421.00
2023-03-26T15:11:34.187Z,421.00
2023-03-26T15:14:51.572Z,452.00
2023-03-26T15:15:54.295Z,435.00
2023-03-26T15:16:52.737Z,435.00
2023-03-26T15:17:52.030Z,434.00
2023-03-26T15:18:53.856Z,433.00
2023-03-26T15:19:53.165Z,433.00
2023-03-26T15:20:53.703Z,433.00
2023-03-26T15:21:53.379Z,434.00
2023-03-26T15:22:53.512Z,432.00
2023-03-26T15:23:52.742Z,430.00
2023-03-26T15:24:53.729Z,427.00
2023-03-26T15:25:53.840Z,428.00
2023-03-26T15:26:54.072Z,426.00
2023-03-26T15:27:53.182Z,425.00
2023-03-26T15:28:54.315Z,425.00
2023-03-26T15:29:53.795Z,425.00
2023-03-26T15:30:54.066Z,428.00
2023-03-26T15:31:54.734Z,429.00
2023-03-26T15:32:55.381Z,429.00
2023-03-26T15:33:54.906Z,430.00
2023-03-26T15:34:54.240Z,429.00
2023-03-26T15:35:57.398Z,427.00
2023-03-26T15:36:54.461Z,430.00
2023-03-26T15:37:55.591Z,430.00
2023-03-26T15:38:54.975Z,428.00
2023-03-26T15:39:59.410Z,429.00
2023-03-26T15:40:55.092Z,427.00
2023-03-26T15:41:55.111Z,426.00
2023-03-26T15:42:56.650Z,423.00
2023-03-26T15:44:22.501Z,422.00
2023-03-26T15:44:56.445Z,423.00
2023-03-26T15:45:56.772Z,424.00
2023-03-26T15:46:55.925Z,425.00
2023-03-26T15:47:56.900Z,426.00
2023-03-26T15:48:56.991Z,429.00
2023-03-26T15:49:56.422Z,431.00
2023-03-26T15:50:57.337Z,432.00
2023-03-26T15:51:57.303Z,433.00
2023-03-26T15:52:57.462Z,430.00
2023-03-26T15:53:57.224Z,429.00
2023-03-26T15:54:57.174Z,428.00
2023-03-26T15:55:57.216Z,428.00
2023-03-26T15:56:58.174Z,427.00
2023-03-26T15:57:57.395Z,426.00
2023-03-26T15:58:57.314Z,426.00
2023-03-26T16:12:00.580Z,450.00
2023-03-26T16:13:01.592Z,428.00
2023-03-26T16:14:04.658Z,427.00
2023-03-26T16:15:00.909Z,426.00
2023-03-26T16:16:01.064Z,427.00
2023-03-26T16:17:01.917Z,427.00
2023-03-26T16:18:01.450Z,426.00
2023-03-26T16:19:01.332Z,428.00
2023-03-26T16:20:01.846Z,429.00
2023-03-26T16:21:01.846Z,429.00
2023-03-26T16:22:01.940Z,427.00
2023-03-26T16:23:02.977Z,427.00
2023-03-26T16:24:02.077Z,426.00
2023-03-26T16:25:01.972Z,426.00
2023-03-26T16:26:03.199Z,425.00
2023-03-26T16:27:03.253Z,425.00
2023-03-26T16:28:03.505Z,424.00
2023-03-26T16:29:03.488Z,423.00
2023-03-26T16:30:04.192Z,423.00
2023-03-26T16:31:04.433Z,424.00
2023-03-26T16:32:04.112Z,423.00
2023-03-26T16:33:03.339Z,422.00
2023-03-26T16:34:03.342Z,422.00
2023-03-26T16:35:04.392Z,424.00
2023-03-26T16:36:04.604Z,424.00
2023-03-26T16:37:03.938Z,425.00
2023-03-26T16:38:04.776Z,425.00
2023-03-26T16:39:05.499Z,427.00
2023-03-26T16:40:04.574Z,427.00
2023-03-26T16:41:04.395Z,428.00
2023-03-26T16:42:06.267Z,428.00
2023-03-26T16:43:05.584Z,427.00
2023-03-26T16:44:04.754Z,428.00
2023-03-26T16:45:04.754Z,428.00
2023-03-26T16:46:05.334Z,427.00
2023-03-26T16:47:05.078Z,425.00
2023-03-26T16:48:06.067Z,423.00
2023-03-26T16:49:05.623Z,425.00
2023-03-26T16:50:08.776Z,425.00
2023-03-26T16:51:06.030Z,427.00
2023-03-26T16:52:06.718Z,424.00
2023-03-26T16:53:06.103Z,422.00
2023-03-26T16:54:06.875Z,423.00
2023-03-26T16:55:06.363Z,424.00
2023-03-26T16:56:06.408Z,425.00
2023-03-26T16:57:06.405Z,426.00
2023-03-26T16:58:07.381Z,425.00
2023-03-26T16:59:07.525Z,423.00